createdAt,value
2024-05-09T00:00:22.499Z,86.46
2024-05-09T00:01:17.651Z,86.98
2024-05-09T00:02:17.659Z,87.14
2024-05-09T00:03:17.582Z,86.57
2024-05-09T00:04:17.558Z,87.14
2024-05-09T00:05:17.646Z,86.73
2024-05-09T00:06:17.542Z,87.04
2024-05-09T00:07:17.493Z,87.14
2024-05-09T00:08:17.525Z,86.79
2024-05-09T00:09:17.465Z,87.20
2024-05-09T00:10:25.355Z,87.10
2024-05-09T00:11:17.507Z,86.69
2024-05-09T00:12:17.606Z,87.10
2024-05-09T00:13:17.411Z,86.44
2024-05-09T00:14:17.439Z,86.85
2024-05-09T00:15:17.358Z,86.76
2024-05-09T00:16:17.338Z,86.65
2024-05-09T00:17:17.488Z,86.96
2024-05-09T00:18:17.517Z,86.85
2024-05-09T00:19:17.413Z,86.91
2024-05-09T00:20:23.983Z,86.82
2024-05-09T00:21:17.280Z,87.12
2024-05-09T00:22:17.249Z,86.91
2024-05-09T00:23:17.312Z,86.47
2024-05-09T00:24:17.217Z,86.61
2024-05-09T00:25:17.205Z,86.47
2024-05-09T00:26:17.233Z,86.88
2024-05-09T00:27:17.178Z,86.98
2024-05-09T00:28:27.329Z,87.38
2024-05-09T00:30:32.753Z,87.08
2024-05-09T00:31:24.154Z,86.98
2024-05-09T00:33:31.313Z,86.94
2024-05-09T00:34:31.127Z,86.43
2024-05-09T00:36:38.162Z,86.83
2024-05-09T00:37:38.326Z,86.83
2024-05-09T00:39:46.143Z,86.22
2024-05-09T00:40:46.145Z,86.08
2024-05-09T00:42:53.085Z,86.80
2024-05-09T00:43:53.048Z,86.39
2024-05-09T00:45:49.976Z,86.69
2024-05-09T00:46:49.975Z,86.90
2024-05-09T00:47:50.269Z,86.39
2024-05-09T00:48:49.966Z,86.39
2024-05-09T00:49:49.920Z,86.49
2024-05-09T00:50:49.968Z,86.39
2024-05-09T00:51:49.847Z,86.86
2024-05-09T00:52:49.914Z,86.80
2024-05-09T00:53:49.812Z,86.86
2024-05-09T00:54:49.792Z,86.76
2024-05-09T00:55:49.829Z,86.55
2024-05-09T00:56:49.755Z,86.45
2024-05-09T00:57:49.735Z,86.45
2024-05-09T00:58:49.794Z,86.55
2024-05-09T00:59:49.703Z,86.55
2024-05-09T01:00:49.706Z,86.55
2024-05-09T01:01:49.810Z,86.24
2024-05-09T01:02:49.757Z,86.65
2024-05-09T01:03:51.258Z,86.24
2024-05-09T01:04:49.827Z,86.76
2024-05-09T01:05:49.707Z,86.24
2024-05-09T01:06:49.609Z,86.15
2024-05-09T01:07:49.642Z,86.30
2024-05-09T01:08:49.580Z,86.10
2024-05-09T01:09:49.555Z,86.21
2024-05-09T01:10:49.810Z,86.61
2024-05-09T01:11:49.656Z,86.61
2024-05-09T01:12:49.517Z,86.55
2024-05-09T01:13:49.564Z,86.24
2024-05-09T01:14:49.484Z,86.51
2024-05-09T01:15:49.466Z,86.65
2024-05-09T01:16:49.502Z,86.04
2024-05-09T01:17:49.668Z,86.65
2024-05-09T01:18:49.504Z,86.65
2024-05-09T01:19:49.466Z,86.30
2024-05-09T01:20:49.433Z,86.61
2024-05-09T01:21:49.382Z,86.35
2024-05-09T01:22:49.435Z,86.35
2024-05-09T01:23:49.354Z,86.41
2024-05-09T01:24:49.332Z,86.30
2024-05-09T01:25:49.380Z,86.41
2024-05-09T01:26:49.312Z,86.41
2024-05-09T01:27:49.287Z,86.61
2024-05-09T01:28:49.327Z,86.30
2024-05-09T01:29:49.257Z,86.41
2024-05-09T01:30:49.247Z,86.61
2024-05-09T01:31:49.307Z,86.51
2024-05-09T01:32:49.444Z,86.21
2024-05-09T01:33:49.264Z,86.21
2024-05-09T01:34:49.229Z,86.30
2024-05-09T01:35:49.197Z,86.41
2024-05-09T01:36:49.157Z,86.21
2024-05-09T01:37:49.209Z,86.24
2024-05-09T01:38:49.142Z,85.90
2024-05-09T01:39:49.126Z,86.35
2024-05-09T01:40:49.145Z,85.84
2024-05-09T01:41:49.091Z,85.74
2024-05-09T01:42:49.068Z,85.53
2024-05-09T01:43:49.068Z,85.53
2024-05-09T01:44:49.047Z,85.53
2024-05-09T01:45:49.034Z,85.33
2024-05-09T01:46:49.058Z,85.53
2024-05-09T01:47:49.072Z,85.53
2024-05-09T01:48:49.053Z,85.57
2024-05-09T01:49:48.991Z,85.77
2024-05-09T01:50:49.031Z,85.57
2024-05-09T01:51:48.936Z,85.57
2024-05-09T01:52:48.984Z,85.37
2024-05-09T01:53:48.907Z,85.57
2024-05-09T01:54:48.891Z,85.37
2024-05-09T01:55:48.917Z,85.47
2024-05-09T01:56:48.889Z,85.47
2024-05-09T01:57:48.848Z,85.47
2024-05-09T01:58:48.906Z,85.71
2024-05-09T01:59:48.815Z,85.37
2024-05-09T02:00:48.875Z,85.82
2024-05-09T02:01:56.664Z,85.92
2024-05-09T02:02:48.846Z,86.63
2024-05-09T02:03:49.046Z,86.63
2024-05-09T02:04:48.842Z,86.73
2024-05-09T02:05:48.777Z,86.53
2024-05-09T02:06:48.712Z,86.29
2024-05-09T02:07:48.710Z,86.43
2024-05-09T02:08:48.683Z,86.08
2024-05-09T02:09:48.668Z,86.33
2024-05-09T02:10:49.182Z,86.43
2024-05-09T02:11:48.795Z,86.29
2024-05-09T02:12:48.641Z,86.29
2024-05-09T02:13:48.612Z,86.29
2024-05-09T02:14:48.591Z,86.22
2024-05-09T02:15:48.588Z,86.22
2024-05-09T02:16:48.634Z,86.39
2024-05-09T02:17:48.765Z,86.43
2024-05-09T02:18:48.615Z,86.22
2024-05-09T02:19:48.559Z,86.33
2024-05-09T02:20:48.535Z,86.63
2024-05-09T02:21:48.489Z,86.83
2024-05-09T02:22:48.519Z,85.61
2024-05-09T02:23:48.458Z,85.51
2024-05-09T02:24:48.442Z,85.00
2024-05-09T02:25:48.508Z,84.90
2024-05-09T02:26:48.412Z,85.24
2024-05-09T02:27:48.401Z,85.04
2024-05-09T02:28:48.444Z,84.42
2024-05-09T02:29:48.371Z,84.63
2024-05-09T02:30:48.355Z,84.67
2024-05-09T02:31:48.557Z,84.57
2024-05-09T02:32:48.485Z,84.67
2024-05-09T02:33:48.651Z,84.26
2024-05-09T02:34:48.482Z,84.81
2024-05-09T02:35:48.298Z,84.81
2024-05-09T02:36:48.279Z,84.41
2024-05-09T02:37:48.289Z,84.71
2024-05-09T02:38:48.232Z,84.30
2024-05-09T02:39:48.221Z,85.02
2024-05-09T02:40:48.265Z,85.16
2024-05-09T02:41:48.235Z,84.75
2024-05-09T02:42:48.174Z,84.75
2024-05-09T02:43:48.202Z,84.75
2024-05-09T02:44:48.138Z,85.30
2024-05-09T02:45:48.121Z,85.20
2024-05-09T02:46:48.154Z,85.14
2024-05-09T02:47:48.313Z,85.10
2024-05-09T02:48:48.182Z,84.69
2024-05-09T02:49:48.105Z,84.22
2024-05-09T02:50:48.099Z,84.25
2024-05-09T02:51:48.035Z,84.97
2024-05-09T02:52:48.046Z,85.07
2024-05-09T02:53:48.068Z,84.97
2024-05-09T02:54:48.021Z,84.56
2024-05-09T02:55:48.003Z,84.97
2024-05-09T02:56:47.951Z,84.77
2024-05-09T02:57:47.950Z,85.01
2024-05-09T02:58:47.958Z,85.11
2024-05-09T02:59:47.909Z,85.01
2024-05-09T03:00:47.931Z,85.01
2024-05-09T03:01:47.978Z,84.91
2024-05-09T03:02:47.969Z,84.95
2024-05-09T03:03:48.003Z,85.25
2024-05-09T03:04:47.880Z,84.95
2024-05-09T03:05:47.978Z,84.84
2024-05-09T03:06:47.803Z,85.05
2024-05-09T03:07:47.817Z,84.95
2024-05-09T03:08:47.785Z,85.09
2024-05-09T03:09:47.771Z,85.09
2024-05-09T03:10:47.810Z,84.68
2024-05-09T03:11:47.877Z,84.58
2024-05-09T03:12:47.706Z,84.68
2024-05-09T03:13:47.771Z,85.50
2024-05-09T03:14:47.677Z,85.33
2024-05-09T03:15:47.653Z,85.30
2024-05-09T03:16:47.687Z,85.23
2024-05-09T03:17:47.794Z,85.03
2024-05-09T03:18:47.671Z,85.44
2024-05-09T03:19:47.613Z,85.33
2024-05-09T03:20:47.602Z,85.44
2024-05-09T03:21:47.559Z,85.23
2024-05-09T03:22:47.579Z,85.54
2024-05-09T03:23:47.606Z,84.66
2024-05-09T03:24:47.511Z,85.06
2024-05-09T03:25:47.546Z,84.76
2024-05-09T03:26:47.474Z,85.11
2024-05-09T03:27:47.460Z,84.69
2024-05-09T03:28:47.461Z,85.21
2024-05-09T03:29:47.441Z,84.49
2024-05-09T03:30:47.459Z,84.90
2024-05-09T03:31:47.493Z,85.00
2024-05-09T03:32:47.628Z,85.21
2024-05-09T03:33:47.580Z,85.21
2024-05-09T03:34:47.383Z,85.31
2024-05-09T03:35:47.604Z,85.46
2024-05-09T03:36:47.314Z,85.25
2024-05-09T03:37:47.350Z,85.35
2024-05-09T03:38:47.284Z,85.25
2024-05-09T03:39:47.269Z,84.22
2024-05-09T03:40:47.400Z,84.63
2024-05-09T03:41:47.240Z,84.42
2024-05-09T03:42:47.238Z,84.26
2024-05-09T03:43:47.232Z,84.22
2024-05-09T03:44:47.195Z,84.67
2024-05-09T03:45:47.173Z,85.14
2024-05-09T03:46:47.207Z,85.60
2024-05-09T03:47:47.398Z,85.60
2024-05-09T03:48:47.234Z,85.25
2024-05-09T03:49:47.160Z,84.77
2024-05-09T03:50:47.289Z,84.88
2024-05-09T03:51:47.064Z,85.28
2024-05-09T03:55:50.025Z,85.60
2024-05-09T03:56:49.902Z,85.60
2024-05-09T03:59:26.636Z,85.39
2024-05-09T04:00:34.872Z,85.97
2024-05-09T04:23:56.783Z,84.94
2024-05-09T04:24:56.682Z,84.84
2024-05-09T04:25:56.636Z,84.84
2024-05-09T04:26:56.576Z,85.25
2024-05-09T04:27:56.570Z,85.46
2024-05-09T04:28:56.508Z,85.55
2024-05-09T04:29:56.470Z,85.46
2024-05-09T04:30:56.456Z,85.55
2024-05-09T04:31:56.507Z,85.46
2024-05-09T04:32:56.467Z,85.35
2024-05-09T04:33:56.566Z,85.35
2024-05-09T04:34:56.475Z,84.84
2024-05-09T04:35:56.367Z,84.63
2024-05-09T04:36:56.356Z,84.42
2024-05-09T04:37:56.400Z,84.32
2024-05-09T04:38:56.353Z,84.32
2024-05-09T04:39:56.298Z,84.49
2024-05-09T04:40:56.347Z,84.74
2024-05-09T04:41:56.277Z,84.90
2024-05-09T04:42:56.255Z,85.11
2024-05-09T04:43:56.278Z,85.11
2024-05-09T04:44:58.632Z,84.90
2024-05-09T04:45:56.202Z,85.11
2024-05-09T04:46:56.354Z,85.21
2024-05-09T04:58:41.654Z,84.20
2024-05-09T04:59:41.510Z,84.61
2024-05-09T05:00:41.948Z,84.17
2024-05-09T05:01:41.543Z,84.47
2024-05-09T05:02:41.577Z,84.58
2024-05-09T05:03:42.685Z,84.27
2024-05-09T05:04:41.449Z,84.33
2024-05-09T05:05:41.809Z,84.23
2024-05-09T05:06:41.231Z,84.53
2024-05-09T05:07:41.221Z,84.50
2024-05-09T05:08:41.233Z,85.31
2024-05-09T05:09:41.240Z,85.07
2024-05-09T05:10:41.186Z,85.07
2024-05-09T05:11:41.272Z,85.14
2024-05-09T05:12:41.143Z,85.17
2024-05-09T05:13:41.752Z,84.79
2024-05-09T05:14:41.149Z,85.03
2024-05-09T05:15:41.088Z,85.10
2024-05-09T05:16:41.069Z,84.75
2024-05-09T05:17:41.259Z,84.34
2024-05-09T05:18:41.197Z,84.50
2024-05-09T05:19:41.135Z,84.34
2024-05-09T05:20:41.047Z,83.79
2024-05-09T05:21:40.989Z,83.95
2024-05-09T05:22:40.982Z,83.95
2024-05-09T05:23:41.127Z,83.92
2024-05-09T05:24:40.946Z,84.12
2024-05-09T05:25:40.924Z,84.42
2024-05-09T05:26:41.021Z,83.67
2024-05-09T05:27:40.964Z,83.87
2024-05-09T05:28:40.886Z,84.08
2024-05-09T05:29:40.947Z,83.73
2024-05-09T05:30:40.862Z,83.73
2024-05-09T05:31:40.856Z,83.70
2024-05-09T05:32:41.002Z,83.80
2024-05-09T05:33:40.899Z,83.65
2024-05-09T05:34:40.787Z,83.76
2024-05-09T05:35:40.824Z,83.86
2024-05-09T05:36:40.961Z,83.76
2024-05-09T05:37:41.193Z,83.42
2024-05-09T05:38:40.787Z,83.42
2024-05-09T05:39:40.713Z,83.27
2024-05-09T05:40:41.227Z,83.37
2024-05-09T05:41:40.744Z,83.17
2024-05-09T05:42:40.760Z,83.23
2024-05-09T05:43:40.656Z,83.23
2024-05-09T05:44:40.672Z,82.73
2024-05-09T05:45:40.624Z,82.89
2024-05-09T05:46:40.623Z,82.99
2024-05-09T05:47:41.003Z,82.68
2024-05-09T05:48:40.645Z,82.68
2024-05-09T05:49:40.712Z,82.65
2024-05-09T05:50:40.604Z,82.95
2024-05-09T05:51:40.534Z,82.00
2024-05-09T05:52:40.532Z,82.61
2024-05-09T05:53:40.571Z,82.51
2024-05-09T05:54:40.491Z,82.57
2024-05-09T05:55:40.532Z,82.37
2024-05-09T05:56:40.522Z,82.37
2024-05-09T05:57:40.458Z,82.06
2024-05-09T05:58:40.436Z,82.12
2024-05-09T05:59:40.469Z,81.92
2024-05-09T06:00:41.465Z,82.19
2024-05-09T06:01:40.395Z,82.15
2024-05-09T06:02:40.657Z,81.68
2024-05-09T06:03:40.582Z,81.95
2024-05-09T06:04:40.428Z,81.64
2024-05-09T06:05:41.056Z,81.85
2024-05-09T06:06:40.322Z,81.74
2024-05-09T06:07:40.314Z,81.40
2024-05-09T06:08:40.372Z,80.96
2024-05-09T06:09:40.289Z,81.26
2024-05-09T06:10:41.416Z,80.86
2024-05-09T06:11:40.428Z,81.43
2024-05-09T06:12:40.239Z,81.52
2024-05-09T06:13:40.230Z,81.43
2024-05-09T06:14:40.371Z,81.29
2024-05-09T06:15:40.304Z,81.29
2024-05-09T06:16:40.192Z,81.25
2024-05-09T06:17:40.283Z,81.25
2024-05-09T06:18:40.347Z,81.05
2024-05-09T06:19:40.263Z,81.35
2024-05-09T06:20:40.579Z,81.01
2024-05-09T06:21:40.166Z,80.71
2024-05-09T06:22:40.109Z,80.36
2024-05-09T06:23:40.184Z,80.16
2024-05-09T06:24:40.080Z,80.22
2024-05-09T06:25:40.073Z,79.72
2024-05-09T06:26:40.064Z,80.22
2024-05-09T06:27:40.045Z,79.58
2024-05-09T06:28:40.037Z,79.79
2024-05-09T06:29:40.104Z,79.58
2024-05-09T06:30:41.841Z,79.64
2024-05-09T06:31:39.996Z,79.85
2024-05-09T06:32:40.150Z,79.61
2024-05-09T06:33:40.070Z,79.41
2024-05-09T06:34:40.090Z,79.41
2024-05-09T06:35:40.527Z,79.57
2024-05-09T06:36:39.931Z,79.16
2024-05-09T06:37:39.921Z,78.92
2024-05-09T06:38:40.037Z,79.23
2024-05-09T06:39:39.898Z,79.53
2024-05-09T06:40:41.668Z,79.39
2024-05-09T06:41:39.880Z,79.49
2024-05-09T06:42:39.864Z,79.29
2024-05-09T06:43:39.853Z,79.39
2024-05-09T06:44:39.895Z,78.05
2024-05-09T06:45:40.216Z,78.55
2024-05-09T06:46:39.852Z,78.31
2024-05-09T06:47:39.914Z,78.21
2024-05-09T06:48:40.114Z,78.27
2024-05-09T06:49:39.805Z,78.17
2024-05-09T06:50:40.445Z,77.57
2024-05-09T06:51:39.766Z,77.57
2024-05-09T06:52:39.739Z,77.83
2024-05-09T06:53:39.909Z,77.73
2024-05-09T06:54:39.719Z,77.63
2024-05-09T06:55:39.744Z,77.50
2024-05-09T06:56:39.769Z,77.29
2024-05-09T06:57:42.505Z,76.86
2024-05-09T06:58:39.675Z,77.59
2024-05-09T06:59:39.715Z,77.46
2024-05-09T07:00:41.572Z,77.66
2024-05-09T07:01:39.745Z,77.52
2024-05-09T07:02:39.863Z,77.32
2024-05-09T07:03:39.732Z,77.48
2024-05-09T07:04:39.673Z,77.48
2024-05-09T07:05:39.750Z,77.55
2024-05-09T07:06:39.590Z,77.65
2024-05-09T07:07:39.584Z,77.31
2024-05-09T07:08:39.702Z,77.17
2024-05-09T07:09:39.563Z,77.17
2024-05-09T07:10:39.549Z,76.64
2024-05-09T07:11:39.628Z,76.30
2024-05-09T07:12:39.560Z,75.09
2024-05-09T07:13:39.530Z,68.60
2024-05-09T07:14:39.636Z,60.39
2024-05-09T07:15:39.512Z,54.77
2024-05-09T07:23:55.009Z,44.77
2024-05-09T07:24:54.952Z,44.06
2024-05-09T07:25:54.932Z,43.73
2024-05-09T07:26:54.929Z,43.49
2024-05-09T07:27:54.954Z,43.92
2024-05-09T07:28:54.934Z,43.98
2024-05-09T07:29:54.872Z,43.46
2024-05-09T07:30:54.912Z,43.13
2024-05-09T07:31:54.915Z,43.29
2024-05-09T07:32:55.064Z,42.80
2024-05-09T07:33:54.938Z,42.58
2024-05-09T07:34:54.917Z,43.40
2024-05-09T07:35:54.853Z,42.80
2024-05-09T07:36:54.858Z,42.67
2024-05-09T07:37:54.867Z,42.27
2024-05-09T07:38:54.831Z,42.63
2024-05-09T07:39:54.833Z,42.22
2024-05-09T07:40:54.861Z,41.82
2024-05-09T07:41:54.819Z,41.54
2024-05-09T07:42:54.812Z,41.33
2024-05-09T07:43:54.824Z,41.71
2024-05-09T07:50:34.317Z,41.95
2024-05-09T07:52:23.281Z,41.74
2024-05-09T07:53:33.130Z,41.44
2024-05-09T07:53:41.112Z,40.28
2024-05-09T07:54:33.845Z,40.66
2024-05-09T07:55:33.890Z,40.39
2024-05-09T07:56:33.941Z,40.77
2024-05-09T07:57:33.782Z,41.22
2024-05-09T07:58:33.762Z,41.60
2024-05-09T07:59:37.637Z,41.39
2024-05-09T08:00:33.841Z,41.37
2024-05-09T08:01:34.006Z,41.37
2024-05-09T08:02:33.929Z,41.37
2024-05-09T08:03:34.139Z,41.06
2024-05-09T08:04:33.850Z,40.77
2024-05-09T08:05:33.866Z,41.61
2024-05-09T08:06:33.787Z,41.50
2024-05-09T08:07:33.726Z,40.72
2024-05-09T08:08:33.724Z,41.29
2024-05-09T08:09:35.586Z,41.57
2024-05-09T08:10:33.793Z,42.04
2024-05-09T08:11:33.757Z,42.02
2024-05-09T08:12:33.750Z,41.46
2024-05-09T08:13:33.722Z,40.78
2024-05-09T08:14:33.713Z,41.53
2024-05-09T08:15:33.744Z,41.32
2024-05-09T08:16:33.799Z,41.58
2024-05-09T08:17:33.804Z,41.39
2024-05-09T08:18:33.994Z,41.28
2024-05-09T08:19:33.767Z,41.18
2024-05-09T08:20:35.360Z,41.47
2024-05-09T08:21:33.793Z,41.16
2024-05-09T08:22:33.707Z,41.07
2024-05-09T08:23:33.760Z,40.88
2024-05-09T08:24:33.754Z,41.16
2024-05-09T08:25:33.717Z,41.35
2024-05-09T08:26:33.711Z,41.61
2024-05-09T08:27:33.770Z,41.52
2024-05-09T08:28:33.710Z,41.40
2024-05-09T08:29:33.704Z,41.24
2024-05-09T08:30:37.183Z,41.97
2024-05-09T08:31:33.830Z,41.75
2024-05-09T08:32:33.746Z,41.94
2024-05-09T08:33:33.987Z,41.19
2024-05-09T08:34:33.786Z,41.03
2024-05-09T08:35:33.843Z,40.46
2024-05-09T08:36:33.725Z,41.22
2024-05-09T08:37:38.692Z,41.59
2024-05-09T08:38:33.763Z,41.59
2024-05-09T08:39:33.732Z,41.97
2024-05-09T08:40:36.190Z,42.41
2024-05-09T08:41:33.733Z,42.21
2024-05-09T08:42:33.756Z,41.74
2024-05-09T08:43:33.742Z,41.83
2024-05-09T08:44:33.745Z,42.02
2024-05-09T08:45:33.763Z,41.93
2024-05-09T08:46:33.834Z,42.18
2024-05-09T08:47:33.760Z,42.37
2024-05-09T08:48:33.821Z,42.09
2024-05-09T08:49:33.761Z,41.81
2024-05-09T08:50:38.556Z,42.28
2024-05-09T08:51:33.751Z,42.63
2024-05-09T08:52:33.745Z,41.69
2024-05-09T08:53:33.721Z,41.88
2024-05-09T08:54:33.770Z,42.39
2024-05-09T08:55:33.850Z,41.93
2024-05-09T09:03:45.453Z,42.19
2024-05-09T09:04:45.374Z,41.80
2024-05-09T09:05:45.354Z,41.33
2024-05-09T09:06:45.364Z,41.72
2024-05-09T09:07:45.314Z,42.10
2024-05-09T09:08:45.288Z,42.00
2024-05-09T09:09:45.315Z,41.98
2024-05-09T09:10:45.515Z,40.69
2024-05-09T09:11:45.340Z,41.00
2024-05-09T09:12:45.331Z,41.62
2024-05-09T09:13:45.297Z,41.97
2024-05-09T09:14:45.348Z,42.60
2024-05-09T09:15:45.320Z,43.12
2024-05-09T09:16:45.297Z,43.38
2024-05-09T09:17:45.386Z,42.77
2024-05-09T09:18:45.402Z,44.50
2024-05-09T09:19:45.325Z,45.56
2024-05-09T09:20:45.431Z,44.90
2024-05-09T09:21:45.334Z,43.45
2024-05-09T09:22:45.311Z,43.31
2024-05-09T09:23:45.311Z,42.36
2024-05-09T09:24:45.370Z,44.22
2024-05-09T09:25:45.336Z,45.83
2024-05-09T09:26:45.324Z,48.58
2024-05-09T09:27:45.359Z,50.69
2024-05-09T09:28:45.328Z,52.36
2024-05-09T09:29:45.344Z,53.28
2024-05-09T09:30:45.362Z,54.35
2024-05-09T09:31:45.324Z,56.29
2024-05-09T09:32:45.404Z,55.29
2024-05-09T09:33:45.531Z,53.44
2024-05-09T09:34:45.509Z,51.42
2024-05-09T09:35:45.333Z,54.63
2024-05-09T09:36:45.378Z,56.36
2024-05-09T09:37:45.344Z,57.56
2024-05-09T09:38:45.323Z,59.45
2024-05-09T09:39:49.056Z,60.86
2024-05-09T09:40:49.143Z,61.63
2024-05-09T09:41:45.324Z,62.79
2024-05-09T09:42:45.353Z,63.67
2024-05-09T09:43:45.320Z,64.12
2024-05-09T09:44:51.370Z,64.18
2024-05-09T09:45:45.332Z,64.58
2024-05-09T09:46:45.307Z,65.39
2024-05-09T09:47:45.425Z,66.83
2024-05-09T09:48:45.510Z,66.76
2024-05-09T09:49:45.318Z,66.53
2024-05-09T09:50:45.329Z,61.57
2024-05-09T09:51:45.329Z,58.47
2024-05-09T09:52:45.494Z,55.29
2024-05-09T09:53:45.294Z,54.11
2024-05-09T09:54:45.319Z,52.67
2024-05-09T09:55:45.298Z,51.52
2024-05-09T09:56:45.279Z,50.56
2024-05-09T09:57:45.350Z,48.77
2024-05-09T09:58:45.271Z,50.35
2024-05-09T09:59:45.278Z,51.59
2024-05-09T10:00:45.618Z,51.25
2024-05-09T10:01:45.349Z,50.70
2024-05-09T10:02:45.326Z,50.54
2024-05-09T10:03:45.432Z,48.86
2024-05-09T10:04:45.378Z,48.96
2024-05-09T10:05:47.218Z,48.79
2024-05-09T10:06:45.272Z,49.09
2024-05-09T10:07:45.279Z,48.29
2024-05-09T10:08:45.266Z,48.50
2024-05-09T10:09:45.334Z,48.77
2024-05-09T10:10:45.428Z,48.05
2024-05-09T10:11:49.330Z,48.16
2024-05-09T10:12:45.314Z,46.94
2024-05-09T10:13:45.270Z,44.93
2024-05-09T10:14:45.282Z,44.90
2024-05-09T10:15:45.355Z,44.98
2024-05-09T10:16:45.276Z,44.98
2024-05-09T10:17:45.369Z,44.86
2024-05-09T10:18:45.482Z,45.98
2024-05-09T10:19:45.388Z,46.68
2024-05-09T10:20:45.331Z,46.50
2024-05-09T10:21:45.354Z,46.36
2024-05-09T10:22:45.297Z,46.73
2024-05-09T10:23:45.303Z,46.59
2024-05-09T10:24:45.352Z,46.40
2024-05-09T10:25:45.299Z,47.59
2024-05-09T10:26:45.312Z,47.68
2024-05-09T10:27:45.659Z,47.82
2024-05-09T10:37:57.733Z,47.31
2024-05-09T10:38:56.972Z,47.50
2024-05-09T10:39:57.011Z,46.94
2024-05-09T10:40:57.045Z,46.87
2024-05-09T10:41:56.948Z,47.78
2024-05-09T10:42:57.112Z,47.40
2024-05-09T10:43:56.951Z,47.50
2024-05-09T10:44:56.964Z,46.75
2024-05-09T10:45:57.096Z,46.31
2024-05-09T10:46:57.058Z,46.68
2024-05-09T10:47:57.075Z,46.61
2024-05-09T10:48:57.615Z,46.33
2024-05-09T10:49:57.145Z,47.19
2024-05-09T10:50:56.996Z,48.10
2024-05-09T10:51:57.047Z,47.61
2024-05-09T10:52:57.005Z,47.87
2024-05-09T10:53:57.024Z,47.56
2024-05-09T10:54:57.109Z,46.54
2024-05-09T10:55:57.032Z,46.94
2024-05-09T10:56:57.028Z,46.56
2024-05-09T10:57:57.053Z,46.68
2024-05-09T10:58:57.041Z,46.80
2024-05-09T10:59:57.047Z,46.73
2024-05-09T11:00:57.097Z,48.25
2024-05-09T11:01:57.126Z,49.07
2024-05-09T11:02:57.092Z,48.57
2024-05-09T11:03:57.158Z,48.08
2024-05-09T11:04:57.155Z,48.08
2024-05-09T11:05:57.102Z,47.87
2024-05-09T11:06:57.173Z,48.38
2024-05-09T11:07:57.092Z,47.82
2024-05-09T11:08:57.098Z,47.71
2024-05-09T11:09:57.128Z,47.49
2024-05-09T11:10:57.151Z,46.47
2024-05-09T11:11:57.168Z,47.42
2024-05-09T11:12:57.187Z,47.52
2024-05-09T11:13:57.129Z,47.42
2024-05-09T11:14:57.155Z,48.03
2024-05-09T11:15:57.227Z,48.50
2024-05-09T11:16:57.142Z,48.38
2024-05-09T11:17:57.300Z,47.98
2024-05-09T11:18:57.666Z,48.14
2024-05-09T11:19:57.213Z,48.33
2024-05-09T11:20:57.167Z,47.42
2024-05-09T11:21:57.192Z,47.54
2024-05-09T11:22:57.179Z,48.47
2024-05-09T11:23:57.236Z,48.57
2024-05-09T11:24:57.222Z,48.00
2024-05-09T11:25:57.198Z,48.00
2024-05-09T11:26:57.226Z,47.35
2024-05-09T11:27:57.260Z,48.03
2024-05-09T11:28:57.222Z,47.50
2024-05-09T11:29:57.224Z,47.68
2024-05-09T11:30:57.261Z,47.61
2024-05-09T11:31:57.299Z,47.99
2024-05-09T11:32:57.334Z,48.16
2024-05-09T11:33:57.448Z,48.35
2024-05-09T11:34:57.260Z,48.56
2024-05-09T11:35:57.278Z,48.95
2024-05-09T11:36:57.293Z,50.04
2024-05-09T11:37:57.269Z,51.26
2024-05-09T11:38:57.277Z,51.42
2024-05-09T11:39:57.316Z,52.86
2024-05-09T11:40:57.283Z,52.34
2024-05-09T11:41:57.292Z,51.89
2024-05-09T11:42:57.385Z,52.00
2024-05-09T11:43:57.300Z,51.95
2024-05-09T11:44:57.307Z,52.18
2024-05-09T11:45:57.577Z,51.37
2024-05-09T11:46:57.311Z,51.62
2024-05-09T11:47:57.532Z,50.94
2024-05-09T11:48:57.369Z,51.10
2024-05-09T11:49:57.429Z,50.63
2024-05-09T11:50:57.318Z,50.53
2024-05-09T11:51:57.383Z,50.60
2024-05-09T11:52:57.327Z,50.23
2024-05-09T12:14:54.370Z,50.79
2024-05-09T12:15:53.135Z,51.65
2024-05-09T12:16:53.315Z,52.33
2024-05-09T12:17:53.726Z,52.55
2024-05-09T12:18:53.605Z,52.66
2024-05-09T12:19:53.034Z,52.59
2024-05-09T12:20:53.036Z,52.67
2024-05-09T12:21:53.102Z,53.05
2024-05-09T12:22:53.033Z,53.54
2024-05-09T12:23:53.051Z,53.23
2024-05-09T12:24:53.124Z,53.92
2024-05-09T12:25:53.047Z,54.22
2024-05-09T12:26:53.047Z,55.27
2024-05-09T12:27:53.152Z,56.32
2024-05-09T12:28:53.040Z,57.01
2024-05-09T12:29:53.050Z,55.55
2024-05-09T12:30:53.165Z,55.70
2024-05-09T12:31:53.169Z,55.92
2024-05-09T12:32:53.376Z,56.62
2024-05-09T12:33:53.102Z,56.57
2024-05-09T12:34:53.055Z,55.26
2024-05-09T12:35:53.036Z,56.11
2024-05-09T12:36:53.097Z,55.49
2024-05-09T12:37:53.034Z,55.87
2024-05-09T12:38:53.041Z,56.14
2024-05-09T12:39:53.081Z,57.69
2024-05-09T12:40:53.205Z,57.44
2024-05-09T12:41:53.035Z,57.17
2024-05-09T12:42:53.060Z,55.85
2024-05-09T12:43:53.043Z,56.28
2024-05-09T12:44:53.030Z,55.45
2024-05-09T12:45:53.061Z,55.52
2024-05-09T12:46:53.030Z,55.85
2024-05-09T12:47:53.122Z,55.63
2024-05-09T12:48:53.237Z,55.41
2024-05-09T12:49:53.060Z,56.35
2024-05-09T12:50:53.195Z,55.74
2024-05-09T12:51:53.046Z,55.52
2024-05-09T12:52:53.022Z,54.91
2024-05-09T12:53:53.021Z,55.40
2024-05-09T12:54:53.102Z,55.01
2024-05-09T12:55:57.038Z,55.30
2024-05-09T13:02:07.159Z,55.74
2024-05-09T13:19:00.646Z,56.04
2024-05-09T13:20:00.721Z,56.49
2024-05-09T13:21:00.659Z,56.93
2024-05-09T13:22:00.520Z,57.35
2024-05-09T13:23:00.505Z,57.67
2024-05-09T13:36:30.400Z,59.53
2024-05-09T13:37:31.011Z,59.36
2024-05-09T13:38:30.496Z,59.17
2024-05-09T13:39:31.137Z,59.49
2024-05-09T13:40:34.304Z,59.39
2024-05-09T13:41:30.173Z,59.29
2024-05-09T13:42:30.162Z,59.22
2024-05-09T13:43:31.078Z,59.35
2024-05-09T13:44:30.232Z,59.19
2024-05-09T13:45:30.607Z,59.01
2024-05-09T13:46:30.468Z,59.24
2024-05-09T13:47:30.047Z,59.73
2024-05-09T13:48:30.125Z,59.27
2024-05-09T13:49:30.249Z,59.66
2024-05-09T13:50:34.483Z,60.08
2024-05-09T13:51:30.009Z,60.41
2024-05-09T13:52:29.958Z,60.31
2024-05-09T13:53:29.967Z,60.24
2024-05-09T13:54:30.047Z,60.14
2024-05-09T13:55:29.972Z,60.63
2024-05-09T13:56:29.954Z,60.66
2024-05-09T13:57:29.955Z,60.17
2024-05-09T13:58:29.975Z,59.78
2024-05-09T13:59:29.934Z,60.50
2024-05-09T14:00:42.674Z,60.23
2024-05-09T14:01:29.983Z,60.33
2024-05-09T14:02:30.063Z,60.36
2024-05-09T14:03:30.154Z,60.26
2024-05-09T14:04:30.099Z,61.05
2024-05-09T14:05:30.123Z,60.78
2024-05-09T14:06:29.951Z,61.08
2024-05-09T14:07:29.876Z,60.78
2024-05-09T14:08:29.869Z,61.50
2024-05-09T14:09:29.902Z,61.18
2024-05-09T14:10:31.804Z,61.99
2024-05-09T14:11:29.888Z,61.80
2024-05-09T14:12:29.888Z,61.60
2024-05-09T14:13:29.861Z,61.99
2024-05-09T14:14:30.007Z,61.80
2024-05-09T14:15:29.936Z,61.80
2024-05-09T14:46:55.375Z,61.76
2024-05-09T14:47:55.517Z,62.15
2024-05-09T15:31:34.668Z,63.39
2024-05-09T15:32:35.531Z,63.09
2024-05-09T15:33:34.982Z,64.07
2024-05-09T15:34:34.945Z,63.88
2024-05-09T15:35:34.768Z,64.07
2024-05-09T15:36:34.670Z,64.07
2024-05-09T15:37:34.456Z,64.11
2024-05-09T15:38:34.744Z,64.20
2024-05-09T15:39:34.396Z,63.61
2024-05-09T15:40:39.184Z,64.01
2024-05-09T15:41:34.336Z,64.40
2024-05-09T15:42:34.358Z,64.23
2024-05-09T15:43:34.466Z,64.43
2024-05-09T15:44:34.319Z,64.43
2024-05-09T15:45:34.767Z,64.37
2024-05-09T15:46:34.434Z,64.37
2024-05-09T15:47:34.420Z,64.47
2024-05-09T15:48:34.522Z,64.50
2024-05-09T15:49:34.663Z,64.59
2024-05-09T15:50:38.860Z,64.40
2024-05-09T15:51:34.267Z,64.30
2024-05-09T15:52:34.255Z,64.30
2024-05-09T15:53:34.250Z,64.33
2024-05-09T15:54:34.264Z,64.53
2024-05-09T15:55:34.881Z,64.46
2024-05-09T15:56:34.240Z,64.76
2024-05-09T15:57:34.250Z,64.76
2024-05-09T15:58:34.222Z,64.89
2024-05-09T15:59:34.194Z,64.59
2024-05-09T16:00:38.773Z,64.59
2024-05-09T16:01:34.357Z,64.49
2024-05-09T16:02:34.328Z,64.49
2024-05-09T16:03:34.374Z,64.72
2024-05-09T16:04:34.348Z,64.52
2024-05-09T16:05:34.398Z,64.03
2024-05-09T16:06:34.278Z,64.12
2024-05-09T16:07:34.167Z,64.25
2024-05-09T16:08:34.123Z,64.06
2024-05-09T16:09:34.182Z,64.06
2024-05-09T16:10:35.125Z,64.45
2024-05-09T16:11:34.125Z,64.25
2024-05-09T16:12:34.137Z,64.25
2024-05-09T16:13:34.078Z,64.36